Time;durP1;ratioP1;P1;durP2;ratioP2;P2;SDS_P1;SDS_P2;PMS_P1;PMS_P2;Temp;Humidity;BMP_temperature;BMP_pressure;BME280_temperature;BME280_humidity;BME280_pressure;Samples;Min_cycle;Max_cycle;Signal;HPM_P1;HPM_P2
2021/01/31 00:00:28;;;;;;;20.00;12.97;;;;;;;-2.01;80.27;99823.88;5047446;28;20543;-78
2021/01/31 00:02:54;;;;;;;21.13;12.57;;;;;;;-2.07;80.25;99829.22;5041098;28;20356;-79
2021/01/31 00:05:22;;;;;;;20.77;13.60;;;;;;;-2.11;80.53;99824.09;5047062;28;20209;-78
2021/01/31 00:07:48;;;;;;;20.00;13.10;;;;;;;-2.13;79.87;99823.25;5052507;28;20200;-80
2021/01/31 00:10:18;;;;;;;18.43;11.87;;;;;;;-2.17;80.08;99820.78;5049531;28;20224;-78
2021/01/31 00:12:44;;;;;;;19.60;12.73;;;;;;;-2.20;80.07;99823.47;5048710;28;20695;-79
2021/01/31 00:15:15;;;;;;;18.87;11.90;;;;;;;-2.25;80.16;99830.53;5042089;28;20222;-78
2021/01/31 00:17:42;;;;;;;17.80;12.10;;;;;;;-2.28;80.46;99834.09;5047643;28;20854;-80
2021/01/31 00:20:09;;;;;;;21.03;12.20;;;;;;;-2.32;80.17;99834.19;5043593;28;20198;-79
2021/01/31 00:22:35;;;;;;;17.90;11.67;;;;;;;-2.35;80.22;99835.16;5047962;28;20279;-80
2021/01/31 00:25:01;;;;;;;17.70;12.53;;;;;;;-2.39;80.08;99843.94;5048305;28;20209;-79
2021/01/31 00:27:28;;;;;;;17.77;11.73;;;;;;;-2.42;80.15;99846.59;5051695;28;20297;-79
2021/01/31 00:29:54;;;;;;;19.47;12.57;;;;;;;-2.47;80.25;99848.44;5063165;28;20212;-80
2021/01/31 00:32:23;;;;;;;17.00;11.93;;;;;;;-2.50;79.75;99848.50;5066240;28;20288;-80
2021/01/31 00:34:51;;;;;;;16.33;12.27;;;;;;;-2.53;79.70;99848.59;5049353;28;20212;-79
2021/01/31 00:37:17;;;;;;;17.17;11.80;;;;;;;-2.57;80.33;99841.75;5053550;28;20209;-79
2021/01/31 00:39:46;;;;;;;15.17;11.43;;;;;;;-2.60;80.07;99844.41;5053179;28;20232;-79
2021/01/31 00:42:15;;;;;;;19.23;12.47;;;;;;;-2.64;80.17;99841.00;5048831;28;20226;-79
2021/01/31 00:44:43;;;;;;;19.37;11.97;;;;;;;-2.67;80.20;99842.81;5058036;28;20213;-80
2021/01/31 00:47:09;;;;;;;15.53;11.00;;;;;;;-2.70;80.16;99845.53;5050417;28;20213;-79
2021/01/31 00:49:35;;;;;;;14.90;10.60;;;;;;;-2.73;79.94;99856.00;5056384;28;20198;-79
2021/01/31 00:52:01;;;;;;;14.67;10.93;;;;;;;-2.77;79.97;99854.38;5048717;28;20256;-79
2021/01/31 00:54:27;;;;;;;17.07;11.50;;;;;;;-2.81;80.07;99854.44;5061839;28;21002;-80
2021/01/31 00:56:53;;;;;;;18.43;12.27;;;;;;;-2.84;80.22;99856.22;5046664;28;20214;-79
2021/01/31 00:59:19;;;;;;;19.30;12.47;;;;;;;-2.88;80.35;99858.06;5049445;28;20224;-80
2021/01/31 01:01:46;;;;;;;14.33;10.97;;;;;;;-2.89;80.25;99856.34;5054238;28;20571;-79
2021/01/31 01:04:12;;;;;;;17.93;11.70;;;;;;;-2.91;80.15;99862.47;5045546;28;20581;-79
2021/01/31 01:06:38;;;;;;;17.53;11.10;;;;;;;-2.94;80.49;99857.34;5051428;28;20292;-79
2021/01/31 01:09:04;;;;;;;18.43;11.57;;;;;;;-2.98;80.11;99859.13;5046889;28;20205;-79
2021/01/31 01:11:30;;;;;;;17.80;12.07;;;;;;;-3.02;79.97;99862.69;5060707;28;20216;-80
2021/01/31 01:13:56;;;;;;;19.87;11.43;;;;;;;-3.05;80.37;99868.00;5049768;28;20232;-80
2021/01/31 01:16:22;;;;;;;17.87;11.80;;;;;;;-3.08;80.32;99870.66;5048600;28;20222;-80
2021/01/31 01:18:49;;;;;;;15.17;10.97;;;;;;;-3.12;80.07;99861.19;5051695;28;20687;-80
2021/01/31 01:21:15;;;;;;;16.40;12.27;;;;;;;-3.13;80.20;99869.88;5054896;28;21746;-80
2021/01/31 01:23:42;;;;;;;16.50;11.70;;;;;;;-3.16;80.14;99862.97;5051657;28;20225;-79
2021/01/31 01:26:08;;;;;;;17.77;12.23;;;;;;;-3.22;80.39;99859.63;5052148;28;20351;-79
2021/01/31 01:28:34;;;;;;;17.87;11.17;;;;;;;-3.25;80.46;99865.78;5049817;28;20218;-79
2021/01/31 01:31:00;;;;;;;17.17;11.87;;;;;;;-3.28;80.26;99860.63;5057041;28;20287;-81
2021/01/31 01:33:26;;;;;;;17.17;11.50;;;;;;;-3.29;80.45;99855.47;5049058;28;20229;-80
2021/01/31 01:35:53;;;;;;;14.73;11.00;;;;;;;-3.32;80.41;99860.72;5060994;28;20699;-79
2021/01/31 01:38:19;;;;;;;17.30;10.93;;;;;;;-3.36;80.15;99859.06;5046192;28;20241;-79
2021/01/31 01:40:45;;;;;;;18.37;12.60;;;;;;;-3.40;80.35;99847.00;5049771;28;20212;-79
2021/01/31 01:43:14;;;;;;;25.17;13.63;;;;;;;-3.44;80.33;99854.00;5047029;28;20233;-79
2021/01/31 01:45:41;;;;;;;21.40;12.73;;;;;;;-3.48;80.36;99849.75;5046632;28;20198;-81
2021/01/31 01:48:15;;;;;;;19.77;12.77;;;;;;;-3.51;80.31;99857.59;5052597;28;20246;-79
2021/01/31 01:50:45;;;;;;;24.47;13.53;;;;;;;-3.55;80.63;99848.13;5056856;28;20199;-79
2021/01/31 01:53:14;;;;;;;18.63;11.97;;;;;;;-3.58;80.42;99851.66;5069810;28;20283;-79
2021/01/31 01:55:49;;;;;;;20.17;12.30;;;;;;;-3.62;80.22;99852.63;5066181;28;20624;-79
2021/01/31 01:58:18;;;;;;;19.50;12.20;;;;;;;-3.66;80.25;99845.75;5053594;28;20220;-80
2021/01/31 02:00:45;;;;;;;18.47;12.40;;;;;;;-3.69;80.35;99856.22;5054587;28;20198;-78
2021/01/31 02:03:17;;;;;;;17.10;11.80;;;;;;;-3.70;80.65;99858.84;5058568;28;20217;-80
2021/01/31 02:05:47;;;;;;;18.60;12.37;;;;;;;-3.72;80.14;99860.59;5057672;28;20582;-79
2021/01/31 02:08:14;;;;;;;18.40;11.57;;;;;;;-3.74;80.15;99858.03;5051786;28;20202;-80
2021/01/31 02:10:40;;;;;;;18.77;11.03;;;;;;;-3.77;80.49;99859.84;5059886;28;20212;-80
2021/01/31 02:13:06;;;;;;;14.50;11.17;;;;;;;-3.79;80.36;99849.47;5061259;28;20240;-79
2021/01/31 02:15:33;;;;;;;16.00;10.40;;;;;;;-3.81;80.44;99858.19;5055687;28;20214;-79
2021/01/31 02:18:09;;;;;;;16.53;10.90;;;;;;;-3.83;80.58;99866.00;5063930;28;20594;-79
2021/01/31 02:21:11;;;;;;;16.73;9.93;;;;;;;-3.87;80.48;99859.13;5071172;28;20201;-79
2021/01/31 02:24:04;;;;;;;16.60;9.90;;;;;;;-3.92;80.23;99859.22;5062673;28;20605;-79
2021/01/31 02:26:56;;;;;;;12.50;9.17;;;;;;;-3.97;80.57;99870.59;5053044;28;20193;-78
2021/01/31 02:29:47;;;;;;;14.17;9.67;;;;;;;-3.99;80.25;99869.75;5034381;28;20209;-79
2021/01/31 02:32:38;;;;;;;14.37;9.57;;;;;;;-4.03;80.54;99865.50;5048099;28;20611;-79
2021/01/31 02:35:09;;;;;;;13.07;8.70;;;;;;;-4.06;80.44;99871.59;5051019;28;20309;-79
2021/01/31 02:37:40;;;;;;;14.30;8.27;;;;;;;-4.09;80.45;99871.66;5052740;28;20202;-79
2021/01/31 02:40:10;;;;;;;13.87;9.03;;;;;;;-4.12;80.52;99869.09;5060193;28;20293;-79
2021/01/31 02:42:42;;;;;;;14.97;9.20;;;;;;;-4.14;80.50;99873.47;5063632;28;20203;-79
2021/01/31 02:45:16;;;;;;;12.47;8.67;;;;;;;-4.16;80.35;99871.78;5053608;28;20271;-80
2021/01/31 02:47:53;;;;;;;14.23;7.83;;;;;;;-4.17;80.59;99868.31;5063811;28;20366;-79
2021/01/31 02:50:24;;;;;;;12.80;8.67;;;;;;;-4.19;80.67;99872.69;5055664;28;20216;-79
2021/01/31 02:52:56;;;;;;;13.07;7.73;;;;;;;-4.21;80.55;99861.44;5053159;28;20224;-79
2021/01/31 02:55:27;;;;;;;13.27;7.97;;;;;;;-4.23;80.79;99858.88;5070485;28;20223;-79
2021/01/31 02:58:02;;;;;;;13.77;8.27;;;;;;;-4.25;80.78;99851.97;5053751;28;20688;-79
2021/01/31 03:00:32;;;;;;;13.20;8.37;;;;;;;-4.27;80.62;99841.59;5065866;28;20200;-79
2021/01/31 03:03:04;;;;;;;13.90;8.60;;;;;;;-4.30;80.84;99839.03;5058589;28;20229;-79
2021/01/31 03:05:35;;;;;;;13.33;8.37;;;;;;;-4.33;80.78;99840.88;5059995;28;20206;-79
2021/01/31 03:08:06;;;;;;;14.03;8.47;;;;;;;-4.36;80.86;99838.31;5074182;28;20262;-80
2021/01/31 03:10:38;;;;;;;15.87;8.23;;;;;;;-4.37;80.74;99854.78;5075819;28;20205;-79
2021/01/31 03:13:08;;;;;;;12.67;8.27;;;;;;;-4.40;80.87;99855.69;5061475;28;20232;-80
2021/01/31 03:15:38;;;;;;;13.60;8.70;;;;;;;-4.43;81.00;99860.94;5070726;28;20220;-79
2021/01/31 03:18:11;;;;;;;14.63;9.17;;;;;;;-4.47;80.85;99859.25;5051425;28;20560;-79
2021/01/31 03:20:41;;;;;;;16.40;8.90;;;;;;;-4.50;80.93;99858.47;5053727;28;20206;-79
2021/01/31 03:23:14;;;;;;;15.37;8.97;;;;;;;-4.53;81.23;99867.16;5056364;28;20233;-80
2021/01/31 03:25:44;;;;;;;16.07;9.00;;;;;;;-4.55;81.01;99874.13;5053155;28;20198;-79
2021/01/31 03:28:10;;;;;;;14.37;8.57;;;;;;;-4.57;81.08;99868.06;5056940;28;20197;-79
2021/01/31 03:30:36;;;;;;;16.93;9.30;;;;;;;-4.58;81.30;99877.59;5063065;28;20256;-79
2021/01/31 03:33:07;;;;;;;16.50;9.67;;;;;;;-4.60;81.38;99863.78;5062983;28;20225;-79
2021/01/31 03:35:37;;;;;;;15.07;8.47;;;;;;;-4.60;81.33;99870.72;5061380;28;20200;-79
2021/01/31 03:38:09;;;;;;;14.17;9.13;;;;;;;-4.61;81.21;99866.41;5068515;28;20231;-79
2021/01/31 03:40:36;;;;;;;14.90;9.30;;;;;;;-4.62;81.08;99864.69;5047455;28;20194;-79
2021/01/31 03:43:03;;;;;;;15.03;8.87;;;;;;;-4.65;81.28;99868.16;5064767;28;20593;-79
2021/01/31 03:45:33;;;;;;;14.23;9.00;;;;;;;-4.66;81.31;99865.63;5065536;28;20208;-79
2021/01/31 03:48:05;;;;;;;14.43;8.77;;;;;;;-4.69;81.44;99863.94;5062454;28;20198;-79
2021/01/31 03:50:32;;;;;;;16.43;8.60;;;;;;;-4.71;81.32;99863.09;5065726;28;20202;-79
2021/01/31 03:52:59;;;;;;;13.00;8.30;;;;;;;-4.72;81.37;99871.75;5065374;28;20225;-79
2021/01/31 03:55:26;;;;;;;13.07;7.60;;;;;;;-4.74;81.30;99870.91;5058875;28;20221;-79
2021/01/31 03:57:56;;;;;;;13.47;8.40;;;;;;;-4.75;81.53;99876.13;5071956;28;20233;-79
2021/01/31 04:00:25;;;;;;;13.40;8.00;;;;;;;-4.78;81.40;99871.84;5069509;28;20201;-80
2021/01/31 04:02:55;;;;;;;15.17;8.17;;;;;;;-4.80;81.54;99864.94;5059438;28;20224;-80
2021/01/31 04:05:24;;;;;;;15.43;8.30;;;;;;;-4.82;81.63;99869.28;5070629;28;20652;-78
2021/01/31 04:07:53;;;;;;;13.60;8.63;;;;;;;-4.84;81.57;99858.09;5064414;28;20194;-80
2021/01/31 04:10:20;;;;;;;13.83;8.67;;;;;;;-4.85;81.42;99866.75;5073861;28;20233;-79
2021/01/31 04:12:51;;;;;;;14.27;9.03;;;;;;;-4.87;81.63;99864.19;5058054;28;20698;-79
2021/01/31 04:15:39;;;;;;;15.93;8.03;;;;;;;-4.88;81.66;99869.41;5056599;28;20667;-79
2021/01/31 04:18:05;;;;;;;14.70;8.27;;;;;;;-4.91;81.57;99868.56;5065013;28;20213;-80
2021/01/31 04:20:31;;;;;;;13.70;8.40;;;;;;;-4.93;81.46;99866.84;5073118;28;20201;-80
2021/01/31 04:22:57;;;;;;;14.73;8.10;;;;;;;-4.95;81.58;99860.81;5064832;28;20227;-80
2021/01/31 04:25:23;;;;;;;13.80;7.77;;;;;;;-4.97;81.62;99860.84;5054846;28;20206;-80
2021/01/31 04:27:50;;;;;;;12.07;7.27;;;;;;;-4.99;81.56;99860.00;5068261;28;20201;-80
2021/01/31 04:30:17;;;;;;;12.30;7.33;;;;;;;-5.02;81.59;99870.44;5068386;28;20204;-79
2021/01/31 04:32:43;;;;;;;13.87;7.23;;;;;;;-5.04;81.44;99869.59;5065211;28;20229;-78
2021/01/31 04:35:10;;;;;;;12.90;7.47;;;;;;;-5.06;81.54;99866.16;5061839;28;20649;-79
2021/01/31 04:37:37;;;;;;;12.30;7.40;;;;;;;-5.08;81.48;99862.72;5073745;28;20213;-79
2021/01/31 04:40:04;;;;;;;12.97;7.67;;;;;;;-5.10;81.40;99863.63;5050960;28;20277;-79
2021/01/31 04:42:30;;;;;;;13.50;7.17;;;;;;;-5.13;81.46;99863.66;5067370;28;20798;-79
2021/01/31 04:44:57;;;;;;;14.07;7.50;;;;;;;-5.15;81.40;99865.41;5059723;28;20700;-79
2021/01/31 04:47:27;;;;;;;12.97;8.17;;;;;;;-5.17;81.44;99862.81;5060936;28;20212;-79
2021/01/31 04:50:12;;;;;;;11.90;7.03;;;;;;;-5.17;81.77;99865.41;5066642;28;20206;-79
2021/01/31 04:53:00;;;;;;;12.37;7.70;;;;;;;-5.19;81.61;99855.97;5068322;28;20217;-79
2021/01/31 04:55:40;;;;;;;9.90;6.53;;;;;;;-5.23;81.34;99870.69;5060392;28;20216;-79
2021/01/31 04:58:11;;;;;;;11.47;7.10;;;;;;;-5.26;81.72;99870.72;5065102;28;20213;-79
2021/01/31 05:00:48;;;;;;;13.90;7.87;;;;;;;-5.29;81.44;99866.44;5054375;28;20199;-79
2021/01/31 05:03:15;;;;;;;13.23;7.33;;;;;;;-5.32;81.21;99869.06;5052646;28;20233;-79
2021/01/31 05:05:46;;;;;;;14.63;7.17;;;;;;;-5.33;81.52;99869.06;5068852;28;20224;-79
2021/01/31 05:08:18;;;;;;;12.03;6.53;;;;;;;-5.35;81.36;99868.22;5053075;28;20205;-79
2021/01/31 05:10:44;;;;;;;12.13;7.00;;;;;;;-5.36;81.13;99871.69;5076614;28;20747;-79
2021/01/31 05:13:27;;;;;;;11.77;6.77;;;;;;;-5.38;81.36;99860.50;5069962;28;20244;-79
2021/01/31 05:16:00;;;;;;;11.97;6.90;;;;;;;-5.40;81.28;99870.91;5063389;28;20213;-79
2021/01/31 05:18:27;;;;;;;13.07;7.57;;;;;;;-5.42;81.31;99874.38;5055871;28;20225;-79
2021/01/31 05:20:58;;;;;;;11.80;7.80;;;;;;;-5.43;81.33;99872.66;5066936;28;20208;-80
2021/01/31 05:23:24;;;;;;;14.23;7.37;;;;;;;-5.45;81.32;99870.09;5053708;28;20222;-80
2021/01/31 05:25:51;;;;;;;17.00;8.40;;;;;;;-5.47;81.37;99864.06;5073520;28;20201;-79
2021/01/31 05:28:20;;;;;;;13.40;7.20;;;;;;;-5.48;81.31;99864.06;5065995;28;20648;-79
2021/01/31 05:30:47;;;;;;;12.57;6.93;;;;;;;-5.50;81.25;99869.28;5063255;28;20201;-79
2021/01/31 05:33:17;;;;;;;10.60;6.70;;;;;;;-5.51;81.53;99872.72;5070330;28;20221;-78
2021/01/31 05:35:46;;;;;;;12.73;6.90;;;;;;;-5.52;81.33;99878.78;5060865;28;20215;-80
2021/01/31 05:38:13;;;;;;;14.53;7.97;;;;;;;-5.53;81.40;99876.22;5072039;28;20230;-79
2021/01/31 05:40:42;;;;;;;13.60;7.80;;;;;;;-5.55;81.24;99868.44;5065670;28;20202;-81
2021/01/31 05:43:14;;;;;;;12.60;7.27;;;;;;;-5.56;81.47;99869.34;5070078;28;20889;-80
2021/01/31 05:45:44;;;;;;;13.60;7.50;;;;;;;-5.60;81.30;99871.13;5053944;28;20240;-81
2021/01/31 05:48:22;;;;;;;16.03;7.70;;;;;;;-5.61;81.50;99872.00;5065243;28;20220;-81
2021/01/31 05:50:49;;;;;;;11.57;6.97;;;;;;;-5.61;81.54;99860.75;5067229;28;20204;-80
2021/01/31 05:53:27;;;;;;;13.57;7.23;;;;;;;-5.63;81.53;99871.16;5063353;28;20315;-79
2021/01/31 05:56:12;;;;;;;11.97;6.60;;;;;;;-5.64;81.46;99871.16;5060606;28;20207;-80
2021/01/31 05:58:38;;;;;;;11.00;6.57;;;;;;;-5.67;81.45;99874.63;5065455;28;20228;-80
2021/01/31 06:01:07;;;;;;;11.50;6.60;;;;;;;-5.69;81.38;99880.72;5060187;28;20217;-79
2021/01/31 06:03:34;;;;;;;12.90;6.57;;;;;;;-5.72;81.59;99871.22;5069620;28;20228;-80
2021/01/31 06:06:12;;;;;;;12.10;7.07;;;;;;;-5.73;81.48;99873.84;5061909;28;20251;-80
2021/01/31 06:08:41;;;;;;;13.70;6.73;;;;;;;-5.79;81.56;99874.75;5068917;28;20204;-79
2021/01/31 06:11:11;;;;;;;11.27;6.27;;;;;;;-5.85;81.69;99871.38;5058429;28;20206;-79
2021/01/31 06:13:38;;;;;;;12.40;7.00;;;;;;;-5.89;81.56;99880.94;5058645;28;20770;-79
2021/01/31 06:16:08;;;;;;;13.37;7.50;;;;;;;-5.91;81.20;99884.44;5053189;28;20226;-79
2021/01/31 06:18:42;;;;;;;13.70;7.67;;;;;;;-5.93;81.25;99881.84;5062684;28;20284;-79
2021/01/31 06:21:09;;;;;;;13.57;6.60;;;;;;;-5.93;81.22;99891.38;5050646;28;20246;-79
2021/01/31 06:23:41;;;;;;;15.50;7.43;;;;;;;-5.94;81.30;99887.06;5046224;28;20601;-78
2021/01/31 06:26:07;;;;;;;11.63;6.63;;;;;;;-5.94;81.49;99882.72;5054733;28;20204;-79
2021/01/31 06:28:46;;;;;;;14.40;7.20;;;;;;;-5.94;81.81;99884.47;5061272;28;20203;-79
2021/01/31 06:31:20;;;;;;;11.23;6.93;;;;;;;-5.93;81.69;99887.03;5068024;28;20206;-79
2021/01/31 06:33:47;;;;;;;11.60;6.80;;;;;;;-5.91;81.60;99881.84;5071445;28;20693;-79
2021/01/31 06:36:23;;;;;;;14.60;7.73;;;;;;;-5.91;82.10;99885.25;5077843;28;20329;-80
2021/01/31 06:38:59;;;;;;;13.43;7.93;;;;;;;-5.92;81.83;99878.38;5055935;28;20581;-79
2021/01/31 06:41:47;;;;;;;12.57;6.70;;;;;;;-5.93;81.59;99875.81;5058535;28;20213;-79
2021/01/31 06:44:23;;;;;;;12.97;6.67;;;;;;;-5.96;81.41;99872.38;5066244;28;20448;-80
2021/01/31 06:47:00;;;;;;;13.07;7.27;;;;;;;-5.97;81.93;99870.66;5056639;28;20644;-79
2021/01/31 06:49:37;;;;;;;12.20;6.90;;;;;;;-6.00;82.28;99881.03;5058170;28;20432;-79
2021/01/31 06:52:15;;;;;;;13.13;7.23;;;;;;;-6.01;81.70;99881.06;5058918;28;20291;-79
2021/01/31 06:55:02;;;;;;;12.10;6.50;;;;;;;-6.06;81.69;99890.59;5054574;28;20201;-79
2021/01/31 06:57:54;;;;;;;11.57;6.27;;;;;;;-6.16;81.76;99889.81;5064783;28;20538;-79
2021/01/31 07:00:51;;;;;;;10.67;6.13;;;;;;;-6.24;81.86;99890.75;5053807;28;20459;-79
2021/01/31 07:03:29;;;;;;;12.57;6.77;;;;;;;-6.30;81.70;99886.47;5059352;28;20229;-80
2021/01/31 07:06:13;;;;;;;12.23;6.73;;;;;;;-6.32;81.49;99890.81;5058876;28;20668;-78
2021/01/31 07:09:01;;;;;;;10.70;6.30;;;;;;;-6.33;81.85;99895.13;5061271;28;20441;-79
2021/01/31 07:11:35;;;;;;;12.90;6.80;;;;;;;-6.32;81.83;99899.44;5045079;28;20551;-80
2021/01/31 07:14:36;;;;;;;14.20;7.10;;;;;;;-6.30;81.65;99891.66;5071360;28;20243;-80
2021/01/31 07:17:11;;;;;;;12.37;7.27;;;;;;;-6.30;81.79;99891.66;5040699;28;20217;-79
2021/01/31 07:19:40;;;;;;;11.27;6.50;;;;;;;-6.29;81.77;99897.72;5070328;28;20744;-79
2021/01/31 07:22:14;;;;;;;14.10;7.13;;;;;;;-6.29;81.63;99893.38;5055773;28;20467;-80
2021/01/31 07:24:47;;;;;;;15.37;7.10;;;;;;;-6.29;81.73;99895.97;5059263;28;20217;-80
2021/01/31 07:27:22;;;;;;;13.23;6.90;;;;;;;-6.31;81.88;99896.00;5051730;28;20212;-79
2021/01/31 07:29:56;;;;;;;15.30;8.27;;;;;;;-6.29;82.38;99892.53;5051650;28;20205;-79
2021/01/31 07:32:28;;;;;;;13.27;6.87;;;;;;;-6.29;82.25;99895.13;5056229;28;20217;-79
2021/01/31 07:35:02;;;;;;;13.70;7.87;;;;;;;-6.28;82.11;99899.44;5054789;28;20232;-79
2021/01/31 07:37:30;;;;;;;14.57;7.43;;;;;;;-6.29;82.35;99893.38;5059155;28;20202;-80
2021/01/31 07:40:06;;;;;;;14.07;8.07;;;;;;;-6.28;82.20;99894.25;5059417;28;20475;-79
2021/01/31 07:42:36;;;;;;;17.33;8.77;;;;;;;-6.28;82.35;99889.94;5054842;28;20245;-81
2021/01/31 07:45:08;;;;;;;14.50;8.33;;;;;;;-6.27;82.53;99898.56;5056807;28;20207;-80
2021/01/31 07:47:34;;;;;;;14.17;8.37;;;;;;;-6.26;82.25;99900.25;5057698;28;20224;-80
2021/01/31 07:50:29;;;;;;;15.77;8.27;;;;;;;-6.25;82.33;99899.38;5058581;28;20208;-79
2021/01/31 07:52:57;;;;;;;11.67;7.87;;;;;;;-6.24;82.54;99895.91;5050998;28;20256;-79
2021/01/31 07:55:32;;;;;;;14.47;8.77;;;;;;;-6.24;82.10;99895.91;5051275;28;20444;-80
2021/01/31 07:58:05;;;;;;;15.07;8.23;;;;;;;-6.24;82.14;99895.91;5058079;28;20216;-78
2021/01/31 08:00:39;;;;;;;13.40;7.63;;;;;;;-6.22;82.66;99904.53;5064809;22;20634;-67
2021/01/31 08:03:19;;;;;;;13.20;7.63;;;;;;;-6.20;82.34;99908.00;5059877;28;20588;-66
2021/01/31 08:05:59;;;;;;;15.00;7.80;;;;;;;-6.20;82.24;99902.81;5054241;28;20201;-67
2021/01/31 08:08:49;;;;;;;14.33;7.47;;;;;;;-6.22;82.53;99900.22;5063799;28;20317;-66
2021/01/31 08:11:54;;;;;;;12.87;7.27;;;;;;;-6.19;82.47;99905.38;5062519;28;20452;-66
2021/01/31 08:14:57;;;;;;;14.23;7.53;;;;;;;-6.16;82.83;99902.78;5060122;28;20205;-67
2021/01/31 08:17:43;;;;;;;13.20;6.97;;;;;;;-6.09;82.93;99903.59;5063140;28;20220;-67
2021/01/31 08:20:47;;;;;;;16.23;8.57;;;;;;;-6.04;82.79;99899.22;5058904;28;20639;-67
2021/01/31 08:23:46;;;;;;;16.47;8.07;;;;;;;-5.97;83.28;99912.13;5062597;28;20822;-67
2021/01/31 08:26:36;;;;;;;14.13;8.00;;;;;;;-5.89;83.04;99899.06;5061300;28;20221;-66
2021/01/31 08:29:03;;;;;;;14.37;7.80;;;;;;;-5.81;83.34;99909.38;5063354;28;20197;-66
2021/01/31 08:31:29;;;;;;;18.27;8.97;;;;;;;-5.75;83.27;99904.13;5060122;28;20206;-67
2021/01/31 08:34:03;;;;;;;15.77;8.20;;;;;;;-5.68;83.61;99898.84;5065653;28;20200;-66
2021/01/31 08:36:31;;;;;;;16.17;8.47;;;;;;;-5.58;83.50;99903.97;5065659;28;20228;-66
2021/01/31 08:38:59;;;;;;;18.73;8.43;;;;;;;-5.48;84.13;99900.38;5059379;28;20229;-67
2021/01/31 08:41:42;;;;;;;16.37;8.77;;;;;;;-5.36;84.13;99895.06;5060917;28;20205;-67
2021/01/31 08:44:42;;;;;;;15.43;8.20;;;;;;;-5.25;84.45;99901.88;5058340;28;20569;-67
2021/01/31 08:47:09;;;;;;;17.87;9.00;;;;;;;-5.13;84.47;99898.25;5064078;28;20226;-67
2021/01/31 08:49:35;;;;;;;16.63;10.13;;;;;;;-5.01;84.97;99895.50;5060834;28;20197;-66
2021/01/31 08:52:04;;;;;;;21.73;9.73;;;;;;;-4.90;85.02;99891.03;5053675;28;20209;-66
2021/01/31 08:54:31;;;;;;;19.57;9.67;;;;;;;-4.74;85.55;99894.28;5064317;28;20678;-67
2021/01/31 08:56:58;;;;;;;17.07;9.50;;;;;;;-4.60;85.52;99896.69;5056319;28;20283;-65
2021/01/31 08:59:30;;;;;;;17.53;9.50;;;;;;;-4.47;85.53;99894.78;5061366;28;20224;-66
2021/01/31 09:02:17;;;;;;;19.93;9.93;;;;;;;-4.32;85.99;99894.56;5057718;28;20263;-67
2021/01/31 09:04:45;;;;;;;18.00;9.37;;;;;;;-4.12;86.11;99895.09;5062337;28;20224;-67
2021/01/31 09:07:19;;;;;;;23.23;11.37;;;;;;;-3.94;86.18;99892.19;5058713;28;20245;-64
2021/01/31 09:09:53;;;;;;;16.47;9.27;;;;;;;-3.77;86.28;99886.72;5060010;28;20212;-67
2021/01/31 09:12:21;;;;;;;17.87;9.63;;;;;;;-3.62;86.35;99878.66;5064050;28;20205;-63
2021/01/31 09:14:47;;;;;;;18.00;10.07;;;;;;;-3.44;86.31;99881.78;5062417;28;20662;-65
2021/01/31 09:17:22;;;;;;;17.00;10.80;;;;;;;-3.29;86.04;99886.69;5059650;28;20711;-66
2021/01/31 09:19:48;;;;;;;15.13;9.27;;;;;;;-3.16;85.84;99888.16;5052749;28;20221;-66
2021/01/31 09:22:19;;;;;;;15.97;9.40;;;;;;;-3.03;85.56;99884.41;5054453;28;20198;-67
2021/01/31 09:24:51;;;;;;;17.43;10.13;;;;;;;-2.95;85.00;99887.75;5056965;28;20211;-66
2021/01/31 09:27:20;;;;;;;17.07;9.63;;;;;;;-2.85;84.86;99886.63;5058788;28;20230;-67
2021/01/31 09:29:49;;;;;;;14.03;9.70;;;;;;;-2.78;84.78;99884.78;5061254;28;20207;-67
2021/01/31 09:32:19;;;;;;;18.70;10.40;;;;;;;-2.67;85.04;99892.34;5054163;28;20225;-66
2021/01/31 09:34:47;;;;;;;16.30;9.87;;;;;;;-2.58;85.05;99886.94;5052794;28;20197;-67
2021/01/31 09:37:21;;;;;;;14.13;9.27;;;;;;;-2.47;85.32;99890.16;5064071;28;20229;-68
2021/01/31 09:39:50;;;;;;;12.93;8.77;;;;;;;-2.37;84.31;99885.63;5053491;28;20564;-63
2021/01/31 09:42:16;;;;;;;14.00;8.83;;;;;;;-2.31;84.14;99881.09;5050323;28;20298;-68
2021/01/31 09:44:49;;;;;;;14.70;9.10;;;;;;;-2.23;83.88;99893.97;5050187;28;20701;-66
2021/01/31 09:47:25;;;;;;;16.77;9.77;;;;;;;-2.15;84.09;99903.31;5060287;28;20209;-65
2021/01/31 09:49:54;;;;;;;13.77;8.83;;;;;;;-2.06;83.61;99910.06;5055628;28;20199;-66
2021/01/31 09:52:20;;;;;;;13.50;8.97;;;;;;;-2.00;83.63;99906.47;5053541;28;20206;-66
2021/01/31 09:54:46;;;;;;;13.77;9.33;;;;;;;-1.95;83.10;99901.97;5053516;28;20504;-68
2021/01/31 09:57:21;;;;;;;14.37;9.23;;;;;;;-1.92;82.88;99901.91;5058085;28;20247;-66
2021/01/31 09:59:48;;;;;;;11.67;8.77;;;;;;;-1.90;82.65;99898.38;5056711;28;20228;-64
2021/01/31 10:02:19;;;;;;;13.70;9.30;;;;;;;-1.91;82.71;99903.63;5050950;28;20213;-66
2021/01/31 10:04:53;;;;;;;12.47;8.13;;;;;;;-1.94;81.83;99903.69;5053591;28;20209;-68
2021/01/31 10:07:31;;;;;;;16.53;9.93;;;;;;;-1.98;81.86;99896.84;5057400;28;20282;-66
2021/01/31 10:09:58;;;;;;;17.00;9.77;;;;;;;-1.99;81.83;99898.59;5059382;28;20212;-66
2021/01/31 10:12:29;;;;;;;17.90;11.03;;;;;;;-2.01;81.32;99894.31;5062740;28;20216;-64
2021/01/31 10:14:58;;;;;;;15.03;9.53;;;;;;;-2.01;81.14;99899.53;5058693;28;20201;-67
2021/01/31 10:17:38;;;;;;;14.30;10.00;;;;;;;-2.02;81.13;99900.44;5063376;28;20221;-64
2021/01/31 10:20:34;;;;;;;12.73;8.03;;;;;;;-2.02;80.87;99903.91;5065225;28;20225;-68
2021/01/31 10:23:08;;;;;;;14.53;9.63;;;;;;;-2.01;81.12;99895.19;5075257;28;20365;-67
2021/01/31 10:25:36;;;;;;;14.60;9.90;;;;;;;-1.99;81.28;99900.34;5066629;28;20309;-67
2021/01/31 10:28:05;;;;;;;15.50;9.80;;;;;;;-1.99;81.17;99897.75;5061652;28;20212;-69
2021/01/31 10:30:40;;;;;;;13.37;9.27;;;;;;;-2.00;81.20;99901.25;5071761;28;20479;-66
2021/01/31 10:33:08;;;;;;;13.63;9.70;;;;;;;-2.02;80.47;99897.81;5072496;28;20721;-67
2021/01/31 10:35:36;;;;;;;12.43;8.73;;;;;;;-2.01;80.61;99899.53;5076755;28;20212;-68
2021/01/31 10:38:27;;;;;;;12.83;8.90;;;;;;;-1.99;80.84;99902.97;5073731;28;20205;-67
2021/01/31 10:40:53;;;;;;;15.03;8.30;;;;;;;-1.98;80.58;99899.47;5060544;28;20208;-67
2021/01/31 10:43:21;;;;;;;12.87;8.60;;;;;;;-1.99;80.66;99895.16;5061177;28;20211;-66
2021/01/31 10:45:47;;;;;;;11.70;8.07;;;;;;;-2.00;80.67;99891.69;5075091;28;20193;-67
2021/01/31 10:48:13;;;;;;;12.83;8.20;;;;;;;-1.99;80.47;99893.41;5075613;28;20253;-67
2021/01/31 10:50:39;;;;;;;13.03;8.33;;;;;;;-1.97;80.26;99888.13;5058311;28;20209;-65
2021/01/31 10:53:05;;;;;;;12.03;8.40;;;;;;;-1.96;80.12;99882.84;5065468;28;20235;-66
2021/01/31 10:55:31;;;;;;;15.03;9.40;;;;;;;-1.91;80.27;99890.56;5072549;28;20654;-65
2021/01/31 10:57:57;;;;;;;12.57;9.07;;;;;;;-1.88;79.68;99888.75;5063454;28;20205;-68
2021/01/31 11:00:24;;;;;;;13.53;8.97;;;;;;;-1.85;79.71;99882.59;5069833;28;20362;-64
2021/01/31 11:02:50;;;;;;;14.00;9.47;;;;;;;-1.83;80.27;99879.06;5073810;28;20204;-65
2021/01/31 11:05:17;;;;;;;13.50;9.77;;;;;;;-1.81;80.19;99869.44;5071370;28;20214;-66
2021/01/31 11:07:43;;;;;;;16.40;10.43;;;;;;;-1.75;79.88;99868.41;5078481;28;20858;-67
2021/01/31 11:10:11;;;;;;;16.70;10.30;;;;;;;-1.71;80.25;99867.44;5060146;28;20198;-66
2021/01/31 11:12:37;;;;;;;14.70;10.33;;;;;;;-1.70;79.92;99868.28;5060474;28;20239;-66
2021/01/31 11:15:05;;;;;;;15.27;10.37;;;;;;;-1.69;79.49;99873.47;5058121;28;20254;-66
2021/01/31 11:17:31;;;;;;;15.17;9.43;;;;;;;-1.68;79.65;99858.69;5066856;28;20552;-66
2021/01/31 11:19:57;;;;;;;15.47;9.57;;;;;;;-1.66;79.82;99856.88;5064375;28;20708;-66
2021/01/31 11:22:23;;;;;;;13.40;9.80;;;;;;;-1.65;80.11;99853.38;5060927;28;20297;-67
2021/01/31 11:24:49;;;;;;;14.90;9.87;;;;;;;-1.64;79.87;99847.25;5087631;22;20238;-67
2021/01/31 11:27:15;;;;;;;13.70;9.03;;;;;;;-1.65;80.16;99845.56;5065555;28;20257;-67
2021/01/31 11:29:41;;;;;;;12.73;8.70;;;;;;;-1.64;80.10;99848.13;5068445;28;20201;-67
2021/01/31 11:32:08;;;;;;;14.77;9.73;;;;;;;-1.64;79.50;99842.91;5068312;28;20295;-67
2021/01/31 11:34:35;;;;;;;14.40;9.40;;;;;;;-1.63;79.56;99843.75;5064281;28;20710;-67
2021/01/31 11:37:01;;;;;;;14.20;9.47;;;;;;;-1.62;79.48;99848.09;5063920;28;20205;-67
2021/01/31 11:39:27;;;;;;;14.47;9.27;;;;;;;-1.63;79.95;99847.22;5056546;28;20232;-67
2021/01/31 11:41:53;;;;;;;15.00;9.47;;;;;;;-1.61;79.62;99842.78;5058284;28;20206;-67
2021/01/31 11:44:20;;;;;;;15.33;9.67;;;;;;;-1.62;79.21;99838.50;5064862;28;20233;-67